createdAt,value
2023-03-20T00:01:59.138Z,8.50
2023-03-20T00:04:26.416Z,8.50
2023-03-20T00:06:53.425Z,8.50
2023-03-20T00:09:20.587Z,8.50
2023-03-20T00:11:49.960Z,8.50
2023-03-20T00:14:20.343Z,8.50
2023-03-20T00:16:48.763Z,8.50
2023-03-20T00:19:20.796Z,8.50
2023-03-20T00:21:48.616Z,8.50
2023-03-20T00:24:16.613Z,8.50
2023-03-20T00:26:45.461Z,8.40
2023-03-20T00:29:22.160Z,8.40
2023-03-20T00:31:50.046Z,8.40
2023-03-20T00:34:19.549Z,8.40
2023-03-20T00:36:46.975Z,8.40
2023-03-20T00:39:13.978Z,8.30
2023-03-20T00:42:01.878Z,8.30
2023-03-20T00:44:51.073Z,8.30
2023-03-20T00:47:24.330Z,8.30
2023-03-20T00:49:54.342Z,8.30
2023-03-20T00:52:22.554Z,8.20
2023-03-20T00:54:51.757Z,8.20
2023-03-20T00:57:27.562Z,8.20
2023-03-20T01:00:24.028Z,8.20
2023-03-20T01:02:56.526Z,8.20
2023-03-20T01:05:26.309Z,8.20
2023-03-20T01:07:54.408Z,8.20
2023-03-20T01:10:27.692Z,8.20
2023-03-20T01:13:02.908Z,8.10
2023-03-20T01:15:34.499Z,8.10
2023-03-20T01:18:01.761Z,8.10
2023-03-20T01:20:30.271Z,8.10
2023-03-20T01:22:57.559Z,8.20
2023-03-20T01:25:24.982Z,8.20
2023-03-20T01:27:54.290Z,8.20
2023-03-20T01:30:27.326Z,8.20
2023-03-20T01:32:55.603Z,8.20
2023-03-20T01:35:25.861Z,8.20
2023-03-20T01:37:53.495Z,8.20
2023-03-20T01:40:35.893Z,8.20
2023-03-20T01:43:03.522Z,8.10
2023-03-20T01:45:36.070Z,8.20
2023-03-20T01:48:16.726Z,8.10
2023-03-20T01:50:43.774Z,8.10
2023-03-20T01:53:27.649Z,8.10
2023-03-20T01:56:01.296Z,8.10
2023-03-20T01:58:44.041Z,8.10
2023-03-20T02:01:15.917Z,8.10
2023-03-20T02:03:48.626Z,8.10
2023-03-20T02:06:30.472Z,8.10
2023-03-20T02:09:13.362Z,8.20
2023-03-20T02:11:45.269Z,8.20
2023-03-20T02:14:13.513Z,8.20
2023-03-20T02:16:50.869Z,8.20
2023-03-20T02:19:58.445Z,8.20
2023-03-20T02:22:44.497Z,8.20
2023-03-20T02:25:18.567Z,8.20
2023-03-20T02:27:56.453Z,8.20
2023-03-20T02:30:41.540Z,8.20
2023-03-20T02:33:20.348Z,8.20
2023-03-20T02:35:53.174Z,8.30
2023-03-20T02:38:45.670Z,8.30
2023-03-20T02:41:25.913Z,8.30
2023-03-20T02:44:24.972Z,8.30
2023-03-20T02:47:29.570Z,8.30
2023-03-20T02:50:09.408Z,8.30
2023-03-20T02:53:01.431Z,8.30
2023-03-20T02:55:37.699Z,8.30
2023-03-20T02:58:20.371Z,8.30
2023-03-20T03:00:59.010Z,8.30
2023-03-20T03:03:45.497Z,8.30
2023-03-20T03:06:17.835Z,8.30
2023-03-20T03:08:50.486Z,8.30
2023-03-20T03:11:17.648Z,8.30
2023-03-20T03:13:56.644Z,8.30
2023-03-20T03:16:37.098Z,8.30
2023-03-20T03:19:07.373Z,8.30
2023-03-20T03:21:38.221Z,8.30
2023-03-20T03:24:06.169Z,8.20
2023-03-20T03:26:39.588Z,8.20
2023-03-20T03:29:17.215Z,8.20
2023-03-20T03:31:45.795Z,8.20
2023-03-20T03:34:13.973Z,8.20
2023-03-20T03:37:05.702Z,8.20
2023-03-20T03:39:38.917Z,8.20
2023-03-20T03:42:26.070Z,8.20
2023-03-20T03:45:00.025Z,8.20
2023-03-20T03:47:53.451Z,8.20
2023-03-20T03:50:41.703Z,8.20
2023-03-20T03:53:12.176Z,8.20
2023-03-20T03:55:44.730Z,8.20
2023-03-20T03:58:33.444Z,8.20
2023-03-20T04:01:02.593Z,8.20
2023-03-20T04:03:34.194Z,8.20
2023-03-20T04:06:04.813Z,8.20
2023-03-20T04:08:32.045Z,8.20
2023-03-20T04:11:00.159Z,8.20
2023-03-20T04:13:27.247Z,8.20
2023-03-20T04:15:54.300Z,8.20
2023-03-20T04:18:21.576Z,8.20
2023-03-20T04:20:49.286Z,8.20
2023-03-20T04:23:17.064Z,8.20
2023-03-20T04:25:44.233Z,8.20
2023-03-20T04:28:11.952Z,8.20
2023-03-20T04:31:01.145Z,8.20
2023-03-20T04:33:47.630Z,8.20
2023-03-20T04:36:34.829Z,8.20
2023-03-20T04:39:04.095Z,8.20
2023-03-20T04:41:31.483Z,8.20
2023-03-20T04:43:58.514Z,8.20
2023-03-20T04:46:25.710Z,8.20
2023-03-20T04:48:53.161Z,8.20
2023-03-20T04:51:20.626Z,8.20
2023-03-20T04:53:53.310Z,8.20
2023-03-20T04:56:20.392Z,8.20
2023-03-20T04:58:49.577Z,8.20
2023-03-20T05:01:18.722Z,8.20
2023-03-20T05:03:46.737Z,8.20
2023-03-20T05:06:13.829Z,8.20
2023-03-20T05:08:43.813Z,8.20
2023-03-20T05:11:11.458Z,8.20
2023-03-20T05:13:57.149Z,8.20
2023-03-20T05:16:50.851Z,8.20
2023-03-20T05:19:17.892Z,8.20
2023-03-20T05:22:07.724Z,8.20
2023-03-20T05:24:52.980Z,8.20
2023-03-20T05:27:38.493Z,8.30
2023-03-20T05:30:28.417Z,8.30
2023-03-20T05:32:58.237Z,8.30
2023-03-20T05:35:28.048Z,8.30
2023-03-20T05:38:14.453Z,8.30
2023-03-20T05:40:58.604Z,8.30
2023-03-20T05:43:54.716Z,8.40
2023-03-20T05:46:47.747Z,8.30
2023-03-20T05:49:26.948Z,8.30
2023-03-20T05:52:15.693Z,8.30
2023-03-20T05:55:06.064Z,8.30
2023-03-20T05:58:12.180Z,8.30
2023-03-20T06:01:02.148Z,8.30
2023-03-20T06:03:52.083Z,8.30
2023-03-20T06:06:38.142Z,8.30
2023-03-20T06:09:05.909Z,8.30
2023-03-20T06:11:36.870Z,8.30
2023-03-20T06:14:04.975Z,8.30
2023-03-20T06:16:38.100Z,8.30
2023-03-20T06:19:05.678Z,8.30
2023-03-20T06:21:33.513Z,8.30
2023-03-20T06:24:01.113Z,8.30
2023-03-20T06:26:29.242Z,8.30
2023-03-20T06:29:03.930Z,8.30
2023-03-20T06:31:33.070Z,8.30
2023-03-20T06:34:02.764Z,8.30
2023-03-20T06:36:32.237Z,8.30
2023-03-20T06:39:05.689Z,8.30
2023-03-20T06:41:34.886Z,8.40
2023-03-20T06:44:06.718Z,8.40
2023-03-20T06:46:53.863Z,8.40
2023-03-20T06:49:21.019Z,8.40
2023-03-20T06:51:48.541Z,8.40
2023-03-20T06:54:23.493Z,8.40
2023-03-20T06:56:52.173Z,8.40
2023-03-20T06:59:21.571Z,8.40
2023-03-20T07:01:49.399Z,8.50
2023-03-20T07:04:17.413Z,8.50
2023-03-20T07:06:49.645Z,8.50
2023-03-20T07:09:17.914Z,8.50
2023-03-20T07:11:45.156Z,8.50
2023-03-20T07:14:12.920Z,8.60
2023-03-20T07:16:51.089Z,8.60
2023-03-20T07:19:19.475Z,8.60
2023-03-20T07:21:51.594Z,8.60
2023-03-20T07:24:19.111Z,8.60
2023-03-20T07:26:48.636Z,8.60
2023-03-20T07:29:16.696Z,8.60
2023-03-20T07:31:44.215Z,8.70
2023-03-20T07:34:15.683Z,8.70
2023-03-20T07:36:44.295Z,8.70
2023-03-20T07:39:14.210Z,8.80
2023-03-20T07:41:47.470Z,8.80
2023-03-20T07:44:25.677Z,8.80
2023-03-20T07:46:53.179Z,8.80
2023-03-20T07:49:23.308Z,8.90
2023-03-20T07:51:51.033Z,8.90
2023-03-20T07:54:18.037Z,8.90
2023-03-20T07:56:45.964Z,9.00
2023-03-20T07:59:13.992Z,9.00
2023-03-20T08:01:41.393Z,9.00
2023-03-20T08:04:08.891Z,9.00
2023-03-20T08:06:36.652Z,9.10
2023-03-20T08:09:03.926Z,9.10
2023-03-20T08:11:33.156Z,9.10
2023-03-20T08:14:01.572Z,9.10
2023-03-20T08:16:28.812Z,9.20
2023-03-20T08:19:01.188Z,9.20
2023-03-20T08:21:29.438Z,9.20
2023-03-20T08:23:56.748Z,9.30
2023-03-20T08:26:24.155Z,9.30
2023-03-20T08:28:52.480Z,9.30
2023-03-20T08:31:19.724Z,9.40
2023-03-20T08:33:48.558Z,9.40
2023-03-20T08:36:19.643Z,9.40
2023-03-20T08:38:48.356Z,9.50
2023-03-20T08:41:15.678Z,9.50
2023-03-20T08:43:42.972Z,9.50
2023-03-20T08:46:10.354Z,9.60
2023-03-20T08:48:37.349Z,9.60
2023-03-20T08:51:04.650Z,9.60
2023-03-20T08:53:31.809Z,9.60
2023-03-20T08:55:58.741Z,9.70
2023-03-20T08:58:25.738Z,9.70
2023-03-20T09:00:52.768Z,9.70
2023-03-20T09:03:21.336Z,9.80
2023-03-20T09:05:49.874Z,9.80
2023-03-20T09:08:17.029Z,9.80
2023-03-20T09:10:44.039Z,9.90
2023-03-20T09:13:26.722Z,9.90
2023-03-20T09:15:55.636Z,10.00
2023-03-20T09:18:23.348Z,10.00
2023-03-20T09:20:50.971Z,10.10
2023-03-20T09:23:18.130Z,10.10
2023-03-20T09:25:45.188Z,10.10
2023-03-20T09:28:12.122Z,10.20
2023-03-20T09:30:39.379Z,10.20
2023-03-20T09:33:06.674Z,10.30
2023-03-20T09:35:33.811Z,10.30
2023-03-20T09:38:01.076Z,10.40
2023-03-20T09:40:51.428Z,10.40
2023-03-20T09:43:43.477Z,10.40
2023-03-20T09:46:32.175Z,10.50
2023-03-20T09:49:18.287Z,10.50
2023-03-20T09:52:12.396Z,10.50
2023-03-20T09:54:54.175Z,10.50
2023-03-20T09:57:34.642Z,10.60
2023-03-20T10:00:13.760Z,10.60
2023-03-20T10:03:02.224Z,10.60
2023-03-20T10:05:34.050Z,10.60
2023-03-20T10:08:03.786Z,10.70
2023-03-20T10:10:58.115Z,10.70
2023-03-20T10:13:36.221Z,10.80
2023-03-20T10:16:31.186Z,10.80
2023-03-20T10:19:06.506Z,10.90
2023-03-20T10:21:44.287Z,10.90
2023-03-20T10:24:27.026Z,10.90
2023-03-20T10:26:55.218Z,11.00
2023-03-20T10:29:30.976Z,11.00
2023-03-20T10:32:08.511Z,11.00
2023-03-20T10:34:57.187Z,11.10
2023-03-20T10:37:43.855Z,11.10
2023-03-20T10:40:36.893Z,11.10
2023-03-20T10:43:11.653Z,11.20
2023-03-20T10:45:46.695Z,11.20
2023-03-20T10:48:24.981Z,11.20
2023-03-20T10:50:56.653Z,11.20
2023-03-20T10:53:34.431Z,11.30
2023-03-20T10:56:06.497Z,11.40
2023-03-20T10:58:39.532Z,11.40
2023-03-20T11:01:06.840Z,11.50
2023-03-20T11:03:39.632Z,11.60
2023-03-20T11:06:25.420Z,11.60
2023-03-20T11:08:53.697Z,11.70
2023-03-20T11:11:26.741Z,11.80
2023-03-20T11:13:54.762Z,11.80
2023-03-20T11:16:31.069Z,11.90
2023-03-20T11:19:07.137Z,11.90
2023-03-20T11:21:44.733Z,12.00
2023-03-20T11:24:36.060Z,12.00
2023-03-20T11:27:16.110Z,12.10
2023-03-20T11:29:46.325Z,12.20
2023-03-20T11:32:36.252Z,12.20
2023-03-20T11:35:25.447Z,12.30
2023-03-20T11:37:55.574Z,12.30
2023-03-20T11:40:25.968Z,12.40
2023-03-20T11:43:18.419Z,12.40
2023-03-20T11:45:49.115Z,12.50
2023-03-20T11:48:22.474Z,12.60
2023-03-20T11:50:59.767Z,12.60
2023-03-20T11:53:35.993Z,12.70
2023-03-20T11:56:26.128Z,12.70
2023-03-20T11:59:01.883Z,12.70
2023-03-20T12:01:30.914Z,12.70
2023-03-20T12:03:58.164Z,12.70
2023-03-20T12:06:27.373Z,12.70
2023-03-20T12:09:07.224Z,12.70
2023-03-20T12:12:02.255Z,12.70
2023-03-20T12:14:41.801Z,12.60
2023-03-20T12:17:46.635Z,12.60
2023-03-20T12:20:13.716Z,12.60
2023-03-20T12:23:01.681Z,12.60
2023-03-20T12:25:44.928Z,12.60
2023-03-20T12:28:21.628Z,12.70
2023-03-20T12:31:07.358Z,12.60
2023-03-20T12:33:47.234Z,12.70
2023-03-20T12:36:25.780Z,12.80
2023-03-20T12:38:52.797Z,12.80
2023-03-20T12:41:30.934Z,12.80
2023-03-20T12:44:19.558Z,12.80
2023-03-20T12:47:12.624Z,12.80
2023-03-20T12:50:05.758Z,12.90
2023-03-20T12:52:51.437Z,12.90
2023-03-20T12:55:51.183Z,12.90
2023-03-20T12:58:33.092Z,12.90
2023-03-20T13:00:59.996Z,12.90
2023-03-20T13:03:39.548Z,12.90
2023-03-20T13:06:19.913Z,12.90
2023-03-20T13:09:05.736Z,12.90
2023-03-20T13:12:02.719Z,12.90
2023-03-20T13:14:37.558Z,12.90
2023-03-20T13:17:32.218Z,12.90
2023-03-20T13:20:14.260Z,12.90
2023-03-20T13:23:04.059Z,12.90
2023-03-20T13:25:40.059Z,12.90
2023-03-20T13:28:23.219Z,12.90
2023-03-20T13:31:19.171Z,12.90
2023-03-20T13:34:07.060Z,13.00
2023-03-20T13:37:19.977Z,13.00
2023-03-20T13:39:59.230Z,13.00
2023-03-20T13:42:32.637Z,13.10
2023-03-20T13:45:07.231Z,13.10
2023-03-20T13:47:37.297Z,13.20
2023-03-20T13:50:33.985Z,13.20
2023-03-20T13:53:28.965Z,13.20
2023-03-20T13:56:14.750Z,13.30
2023-03-20T13:59:01.137Z,13.40
2023-03-20T14:01:31.474Z,13.40
2023-03-20T14:04:00.346Z,13.40
2023-03-20T14:06:45.449Z,13.50
2023-03-20T14:09:32.699Z,13.50
2023-03-20T14:12:12.559Z,13.50
2023-03-20T14:14:42.719Z,13.50
2023-03-20T14:17:18.174Z,13.50
2023-03-20T14:19:46.014Z,13.60
2023-03-20T14:22:21.403Z,13.60
2023-03-20T14:24:53.488Z,13.60
2023-03-20T14:27:36.760Z,13.70
2023-03-20T14:30:31.847Z,13.70
2023-03-20T14:33:23.509Z,13.70
2023-03-20T14:36:11.199Z,13.70
2023-03-20T14:38:41.151Z,13.70
2023-03-20T14:41:21.233Z,13.70
2023-03-20T14:43:51.209Z,13.70
2023-03-20T14:47:06.476Z,13.70
2023-03-20T14:49:42.376Z,13.80
2023-03-20T14:52:30.511Z,13.80
2023-03-20T14:55:34.175Z,13.80
2023-03-20T14:58:06.724Z,13.80
2023-03-20T15:00:44.283Z,13.80
2023-03-20T15:03:15.688Z,13.80
2023-03-20T15:05:43.624Z,13.80
2023-03-20T15:08:17.829Z,13.80
2023-03-20T15:10:49.870Z,13.90
2023-03-20T15:13:17.888Z,13.90
2023-03-20T15:16:04.654Z,14.00
2023-03-20T15:18:38.103Z,13.90
2023-03-20T15:21:11.738Z,14.00
2023-03-20T15:23:42.264Z,14.00
2023-03-20T15:26:09.562Z,14.00
2023-03-20T15:28:38.044Z,14.00
2023-03-20T15:31:06.078Z,14.00
2023-03-20T15:33:36.816Z,14.00
2023-03-20T15:36:24.131Z,14.10
2023-03-20T15:38:51.767Z,14.10
2023-03-20T15:41:39.230Z,14.10
2023-03-20T15:44:15.148Z,14.10
2023-03-20T15:47:02.788Z,14.10
2023-03-20T15:49:32.958Z,14.10
2023-03-20T15:52:06.764Z,14.10
2023-03-20T15:54:37.493Z,14.00
2023-03-20T15:57:05.442Z,14.00
2023-03-20T15:59:34.211Z,14.00
2023-03-20T16:02:02.038Z,14.00
2023-03-20T16:04:29.182Z,14.00
2023-03-20T16:06:59.151Z,13.90
2023-03-20T16:09:27.592Z,14.00
2023-03-20T16:11:57.306Z,13.90
2023-03-20T16:14:27.550Z,13.90
2023-03-20T16:16:56.793Z,13.90
2023-03-20T16:19:26.374Z,13.90
2023-03-20T16:22:04.002Z,13.90
2023-03-20T16:24:39.599Z,13.90
2023-03-20T16:27:08.412Z,13.90
2023-03-20T16:29:37.417Z,13.90
2023-03-20T16:32:20.768Z,13.90
2023-03-20T16:34:51.430Z,13.90
2023-03-20T16:37:31.153Z,13.90
2023-03-20T16:40:28.535Z,13.90
2023-03-20T16:42:57.289Z,13.90
2023-03-20T16:45:31.501Z,13.90
2023-03-20T16:48:11.285Z,13.90
2023-03-20T16:50:46.807Z,13.90
2023-03-20T16:53:20.289Z,13.90
2023-03-20T16:55:50.225Z,13.80
2023-03-20T16:58:32.144Z,13.80
2023-03-20T17:01:02.986Z,13.80
2023-03-20T17:03:52.402Z,13.80
2023-03-20T17:06:19.780Z,13.80
2023-03-20T17:08:50.883Z,13.80
2023-03-20T17:11:36.849Z,13.80
2023-03-20T17:14:04.475Z,13.80
2023-03-20T17:16:33.254Z,13.70
2023-03-20T17:19:01.645Z,13.80
2023-03-20T17:21:29.946Z,13.70
2023-03-20T17:23:57.081Z,13.70
2023-03-20T17:26:24.686Z,13.70
2023-03-20T17:28:51.984Z,13.70
2023-03-20T17:31:19.503Z,13.70
2023-03-20T17:33:47.024Z,13.60
2023-03-20T17:36:33.095Z,13.60
2023-03-20T17:39:00.405Z,13.60
2023-03-20T17:41:28.681Z,13.60
2023-03-20T17:43:58.612Z,13.60
2023-03-20T17:46:28.987Z,13.60
2023-03-20T17:49:04.698Z,13.60
2023-03-20T17:51:33.136Z,13.60
2023-03-20T17:54:00.242Z,13.60
2023-03-20T17:56:30.229Z,13.60
2023-03-20T17:58:57.870Z,13.50
2023-03-20T18:01:25.464Z,13.50
2023-03-20T18:03:52.812Z,13.50
2023-03-20T18:06:31.581Z,13.50
2023-03-20T18:09:00.108Z,13.40
2023-03-20T18:11:27.396Z,13.40
2023-03-20T18:13:54.324Z,13.40
2023-03-20T18:16:22.615Z,13.30
2023-03-20T18:18:49.912Z,13.30
2023-03-20T18:21:17.445Z,13.30
2023-03-20T18:23:44.687Z,13.20
2023-03-20T18:26:14.635Z,13.20
2023-03-20T18:28:41.518Z,13.20
2023-03-20T18:31:08.532Z,13.20
2023-03-20T18:33:36.795Z,13.20
2023-03-20T18:36:04.012Z,13.10
2023-03-20T18:38:31.393Z,13.10
2023-03-20T18:40:59.581Z,13.10
2023-03-20T18:43:26.548Z,13.10
2023-03-20T18:45:53.566Z,13.10
2023-03-20T18:48:20.465Z,13.10
2023-03-20T18:50:51.037Z,13.00
2023-03-20T18:53:18.500Z,13.00
2023-03-20T18:55:45.399Z,13.00
2023-03-20T18:58:20.030Z,12.90
2023-03-20T19:00:48.636Z,12.90
2023-03-20T19:03:16.550Z,12.90
2023-03-20T19:05:43.901Z,12.90
2023-03-20T19:08:15.001Z,12.90
2023-03-20T19:10:43.920Z,12.90
2023-03-20T19:13:17.947Z,12.90
2023-03-20T19:15:45.483Z,12.90
2023-03-20T19:18:17.335Z,12.80
2023-03-20T19:20:45.361Z,12.90
2023-03-20T19:23:13.514Z,12.80
2023-03-20T19:25:41.719Z,12.80
2023-03-20T19:28:21.382Z,12.80
2023-03-20T19:30:48.904Z,12.80
2023-03-20T19:33:17.008Z,12.80
2023-03-20T19:36:01.779Z,12.80
2023-03-20T19:38:31.956Z,12.80
2023-03-20T19:41:00.006Z,12.80
2023-03-20T19:43:28.972Z,12.70
2023-03-20T19:45:58.854Z,12.70
2023-03-20T19:48:46.206Z,12.70
2023-03-20T19:51:23.914Z,12.70
2023-03-20T19:53:50.875Z,12.70
2023-03-20T19:56:19.437Z,12.70
2023-03-20T19:58:46.315Z,12.60
2023-03-20T20:01:18.270Z,12.60
2023-03-20T20:03:45.994Z,12.60
2023-03-20T20:06:12.873Z,12.60
2023-03-20T20:08:49.435Z,12.60
2023-03-20T20:11:20.875Z,12.60
2023-03-20T20:14:05.599Z,12.50
2023-03-20T20:16:33.283Z,12.60
2023-03-20T20:19:00.913Z,12.50
2023-03-20T20:22:13.281Z,12.50
2023-03-20T20:24:16.259Z,12.50
2023-03-20T20:26:53.289Z,12.50
2023-03-20T20:29:21.396Z,12.50
2023-03-20T20:31:48.468Z,12.40
2023-03-20T20:35:14.920Z,12.40
2023-03-20T20:39:50.634Z,12.40
2023-03-20T20:42:17.871Z,12.30
2023-03-20T20:44:44.796Z,12.30
2023-03-20T20:47:12.125Z,12.30
2023-03-20T20:49:39.308Z,12.30
2023-03-20T20:52:06.614Z,12.30
2023-03-20T20:54:34.178Z,12.20
2023-03-20T20:57:01.530Z,12.20
2023-03-20T20:59:28.708Z,12.20
2023-03-20T21:01:55.882Z,12.20
2023-03-20T21:04:22.878Z,12.20
2023-03-20T21:09:36.826Z,12.20
2023-03-20T21:12:04.465Z,12.20
2023-03-20T21:14:31.431Z,12.10
2023-03-20T21:17:01.406Z,12.10
2023-03-20T21:19:29.391Z,12.10
2023-03-20T21:21:56.400Z,12.10
2023-03-20T21:24:32.008Z,12.10
2023-03-20T21:27:00.378Z,12.10
2023-03-20T21:29:27.417Z,12.10
2023-03-20T21:31:54.428Z,12.10
2023-03-20T21:34:21.949Z,12.00
2023-03-20T21:36:49.540Z,12.00
2023-03-20T21:39:18.791Z,12.00
2023-03-20T21:41:45.998Z,12.00
2023-03-20T21:44:17.642Z,12.00
2023-03-20T21:47:22.745Z,12.00
2023-03-20T22:01:42.034Z,11.90
2023-03-20T22:04:26.863Z,11.90
2023-03-20T22:20:58.824Z,11.80
2023-03-20T22:29:45.199Z,11.80
2023-03-20T22:35:23.039Z,11.80
2023-03-20T22:38:06.111Z,11.80
2023-03-20T22:40:51.777Z,11.80
2023-03-20T22:44:07.831Z,11.70
2023-03-20T22:46:05.635Z,11.70
2023-03-20T22:48:34.922Z,11.70
2023-03-20T22:51:01.842Z,11.70
2023-03-20T22:53:28.824Z,11.70
2023-03-20T22:55:56.069Z,11.70
2023-03-20T22:58:22.969Z,11.70
2023-03-20T23:00:50.059Z,11.60
2023-03-20T23:03:29.648Z,11.60
2023-03-20T23:06:08.028Z,11.60
2023-03-20T23:08:42.434Z,11.50
2023-03-20T23:11:15.246Z,11.50
2023-03-20T23:13:42.195Z,11.40
2023-03-20T23:16:09.392Z,11.40
2023-03-20T23:18:37.032Z,11.40
2023-03-20T23:21:04.311Z,11.30
2023-03-20T23:23:31.939Z,11.30
2023-03-20T23:26:11.004Z,11.20
2023-03-20T23:28:38.527Z,11.20
2023-03-20T23:31:11.388Z,11.20
2023-03-20T23:33:39.137Z,11.20
2023-03-20T23:36:18.661Z,11.10
2023-03-20T23:38:49.159Z,11.10
2023-03-20T23:41:16.197Z,11.10
2023-03-20T23:43:43.158Z,11.00
2023-03-20T23:46:10.500Z,11.00
2023-03-20T23:48:38.599Z,11.00
2023-03-20T23:51:05.560Z,11.00
2023-03-20T23:53:32.460Z,10.90
2023-03-20T23:55:59.403Z,10.90
2023-03-20T23:58:26.875Z,10.90
